Time;durP1;ratioP1;P1;durP2;ratioP2;P2;SDS_P1;SDS_P2;PMS_P1;PMS_P2;Temp;Humidity;BMP_temperature;BMP_pressure;BME280_temperature;BME280_humidity;BME280_pressure;Samples;Min_cycle;Max_cycle;Signal;HPM_P1;HPM_P2
2022/04/02 00:01:24;;;;;;;1.77;1.50;;;;;;;2.37;100.00;101766.72;5029379;28;21080;-69
2022/04/02 00:03:50;;;;;;;2.60;1.70;;;;;;;2.52;100.00;101769.94;5028919;28;20198;-70
2022/04/02 00:06:15;;;;;;;1.50;1.40;;;;;;;2.18;100.00;101731.13;5035577;28;20989;-70
2022/04/02 00:08:41;;;;;;;1.83;1.73;;;;;;;2.26;100.00;101776.38;5033222;28;20191;-69
2022/04/02 00:11:07;;;;;;;1.77;1.43;;;;;;;2.09;100.00;101725.75;5034067;28;20216;-70
2022/04/02 00:13:33;;;;;;;2.90;1.90;;;;;;;2.44;100.00;101773.22;5034321;28;20188;-70
2022/04/02 00:15:59;;;;;;;2.60;1.40;;;;;;;1.98;100.00;101713.34;5029585;28;20430;-69
2022/04/02 00:18:25;;;;;;;3.07;1.70;;;;;;;2.28;100.00;101748.91;5035689;28;20500;-69
2022/04/02 00:20:50;;;;;;;2.70;1.93;;;;;;;2.37;100.00;101748.19;5029756;23;20515;-73
2022/04/02 00:26:01;;;;;;;2.37;1.80;;;;;;;2.57;100.00;101754.53;5014175;28;20211;-72
2022/04/02 00:28:27;;;;;;;2.40;2.20;;;;;;;2.51;100.00;101758.50;5014341;28;20946;-72
2022/04/02 00:30:52;;;;;;;3.53;2.00;;;;;;;2.30;100.00;101737.25;5017423;28;20481;-70
2022/04/02 00:33:17;;;;;;;3.03;2.00;;;;;;;2.48;100.00;101741.06;5016014;28;20292;-70
2022/04/02 00:35:43;;;;;;;5.03;1.50;;;;;;;2.41;100.00;101742.53;5013513;28;20193;-70
2022/04/02 00:38:08;;;;;;;2.60;1.90;;;;;;;2.38;100.00;101766.59;5014933;28;20184;-70
2022/04/02 00:40:34;;;;;;;2.73;1.70;;;;;;;2.64;100.00;101771.63;5013348;28;20258;-70
2022/04/02 00:42:59;;;;;;;1.57;1.47;;;;;;;2.56;100.00;101763.44;5006913;28;20617;-70
2022/04/02 00:45:25;;;;;;;1.57;1.20;;;;;;;2.38;100.00;101708.34;5018069;28;20197;-70
2022/04/02 00:47:50;;;;;;;2.00;1.80;;;;;;;2.32;100.00;101731.84;5018320;28;20844;-70
2022/04/02 00:50:16;;;;;;;3.20;1.67;;;;;;;2.25;100.00;101742.06;5010208;28;20589;-70
2022/04/02 00:52:43;;;;;;;2.30;1.60;;;;;;;2.58;100.00;101753.56;5012383;28;20184;-71
2022/04/02 00:55:09;;;;;;;2.00;1.90;;;;;;;2.23;100.00;101731.63;5017747;28;20683;-70
2022/04/02 00:57:34;;;;;;;1.50;1.40;;;;;;;1.87;100.00;101655.97;5014249;28;20435;-71
2022/04/02 01:00:00;;;;;;;1.43;1.30;;;;;;;2.40;100.00;101764.69;5017782;28;20717;-71
2022/04/02 01:02:26;;;;;;;3.20;1.97;;;;;;;2.57;100.00;101773.06;5018107;28;20204;-70
2022/04/02 01:04:54;;;;;;;2.13;1.90;;;;;;;2.49;100.00;101750.69;5019655;28;20444;-70
2022/04/02 01:07:20;;;;;;;3.83;1.93;;;;;;;2.28;100.00;101768.28;5016040;28;20601;-70
2022/04/02 01:09:45;;;;;;;4.40;1.67;;;;;;;2.11;100.00;101735.25;5017046;28;20455;-70
2022/04/02 01:12:11;;;;;;;4.67;1.63;;;;;;;2.09;100.00;101746.91;5017810;28;20664;-70
2022/04/02 01:14:37;;;;;;;1.60;1.43;;;;;;;2.46;100.00;101772.13;5019404;28;20679;-70
2022/04/02 01:17:04;;;;;;;1.97;1.50;;;;;;;2.23;100.00;101763.38;5014671;28;20435;-70
2022/04/02 01:19:30;;;;;;;1.50;1.40;;;;;;;2.49;100.00;101779.00;5005037;28;20188;-70
2022/04/02 01:21:55;;;;;;;1.70;1.57;;;;;;;2.13;100.00;101777.44;5008077;28;20499;-70
2022/04/02 01:24:21;;;;;;;2.57;1.50;;;;;;;2.23;100.00;101759.91;5011837;28;20592;-70
2022/04/02 01:26:47;;;;;;;1.70;1.60;;;;;;;2.13;100.00;101786.22;5006964;28;20679;-70
2022/04/02 01:29:12;;;;;;;2.03;1.40;;;;;;;2.28;100.00;101781.53;5008484;28;20609;-70
2022/04/02 01:31:43;;;;;;;3.37;1.43;;;;;;;2.35;100.00;101769.50;5009273;28;20466;-70
2022/04/02 01:34:09;;;;;;;2.80;1.30;;;;;;;2.09;100.00;101729.22;5009453;28;20216;-70
2022/04/02 01:36:34;;;;;;;1.53;1.30;;;;;;;2.36;100.00;101771.16;5006661;28;20546;-70
2022/04/02 01:38:59;;;;;;;2.17;1.40;;;;;;;2.42;100.00;101783.09;5009428;28;20196;-71
2022/04/02 01:41:25;;;;;;;1.50;1.40;;;;;;;2.28;100.00;101762.16;5015358;28;20220;-70
2022/04/02 01:43:50;;;;;;;1.87;1.30;;;;;;;2.23;100.00;101760.72;5016908;28;20192;-71
2022/04/02 01:46:16;;;;;;;1.60;1.37;;;;;;;2.45;100.00;101780.19;5011926;28;20626;-70
2022/04/02 01:48:42;;;;;;;2.23;1.60;;;;;;;2.22;100.00;101745.78;5006889;28;20215;-70
2022/04/02 01:51:08;;;;;;;2.20;1.93;;;;;;;2.36;100.00;101780.94;5001773;28;20231;-70
2022/04/02 01:53:34;;;;;;;1.90;1.50;;;;;;;2.27;100.00;101734.84;5005746;28;20451;-71
2022/04/02 01:56:00;;;;;;;1.30;1.17;;;;;;;2.26;100.00;101775.53;5004377;28;20934;-70
2022/04/02 01:58:26;;;;;;;1.73;1.10;;;;;;;2.36;100.00;101775.63;4987023;28;20444;-70
2022/04/02 02:00:51;;;;;;;2.03;1.63;;;;;;;2.14;100.00;101795.88;5004540;28;20494;-71
2022/04/02 02:03:17;;;;;;;3.50;1.43;;;;;;;2.20;100.00;101770.72;5003466;28;20474;-71
2022/04/02 02:05:44;;;;;;;1.63;1.53;;;;;;;2.32;100.00;101790.94;5007745;28;20185;-70
2022/04/02 02:08:09;;;;;;;2.20;1.30;;;;;;;2.06;100.00;101795.63;5005996;28;21152;-70
2022/04/02 02:10:35;;;;;;;2.40;1.50;;;;;;;2.08;100.00;101795.50;5011578;28;20470;-70
2022/04/02 02:13:01;;;;;;;2.57;1.40;;;;;;;1.85;100.00;101758.44;5009160;28;20223;-70
2022/04/02 02:15:27;;;;;;;1.50;1.40;;;;;;;2.26;100.00;101796.72;5013803;28;20642;-71
2022/04/02 02:17:53;;;;;;;1.57;1.47;;;;;;;2.07;100.00;101799.13;5005433;28;20188;-71
2022/04/02 02:20:18;;;;;;;2.63;1.73;;;;;;;1.90;100.00;101795.97;5006167;28;20481;-71
2022/04/02 02:22:45;;;;;;;2.67;1.80;;;;;;;2.14;100.00;101797.66;5005084;28;20492;-71
2022/04/02 02:25:12;;;;;;;2.57;1.20;;;;;;;2.04;100.00;101800.19;5004285;28;20275;-71
2022/04/02 02:27:45;;;;;;;1.97;1.30;;;;;;;1.88;100.00;101778.53;5007208;28;20893;-71
2022/04/02 02:30:12;;;;;;;4.97;1.50;;;;;;;1.64;100.00;101742.44;5002962;28;20485;-70
2022/04/02 02:32:38;;;;;;;1.57;1.33;;;;;;;2.09;100.00;101799.84;5002166;28;20581;-71
2022/04/02 02:38:10;;;;;;;1.70;1.60;;;;;;;1.81;100.00;101786.94;5006934;28;20442;-71
2022/04/02 02:40:36;;;;;;;1.97;1.43;;;;;;;1.89;100.00;101796.94;5003366;28;20458;-72
2022/04/02 02:43:03;;;;;;;3.70;1.80;;;;;;;1.83;100.00;101776.25;5001386;28;20513;-73
2022/04/02 02:45:28;;;;;;;2.10;1.40;;;;;;;2.07;100.00;101797.31;5000967;28;20458;-72
2022/04/02 02:47:54;;;;;;;1.20;1.10;;;;;;;2.02;100.00;101804.75;4993687;28;20467;-72
2022/04/02 02:50:24;;;;;;;1.20;1.10;;;;;;;2.00;100.00;101801.41;5007816;28;20208;-72
2022/04/02 02:52:49;;;;;;;3.33;1.53;;;;;;;1.92;100.00;101801.16;5008284;28;20451;-71
2022/04/02 02:55:15;;;;;;;2.40;1.23;;;;;;;1.90;100.00;101798.59;5006947;28;21667;-72
2022/04/02 02:57:41;;;;;;;2.93;1.50;;;;;;;1.99;100.00;101803.19;5017310;28;20188;-72
2022/04/02 03:00:08;;;;;;;3.67;1.67;;;;;;;1.88;100.00;101810.25;5015172;28;20212;-72
2022/04/02 03:02:34;;;;;;;3.33;1.40;;;;;;;1.62;100.00;101805.19;5012928;28;20446;-72
2022/04/02 03:04:59;;;;;;;3.03;1.60;;;;;;;2.03;100.00;101806.44;5012923;28;20856;-73
2022/04/02 03:07:25;;;;;;;2.77;1.40;;;;;;;1.51;100.00;101747.84;4998180;28;20890;-73
2022/04/02 03:09:51;;;;;;;2.80;1.40;;;;;;;1.99;100.00;101805.81;5015439;28;20181;-73
2022/04/02 03:12:17;;;;;;;1.87;1.03;;;;;;;1.92;100.00;101809.94;5006527;28;20439;-73
2022/04/02 03:14:42;;;;;;;2.93;1.60;;;;;;;1.91;100.00;101802.97;5006570;28;20668;-73
2022/04/02 03:17:09;;;;;;;1.57;1.47;;;;;;;1.68;100.00;101807.38;5013056;28;20224;-73
2022/04/02 03:19:35;;;;;;;2.27;1.23;;;;;;;1.48;100.00;101786.88;5012839;28;20184;-73
2022/04/02 03:22:00;;;;;;;2.23;1.33;;;;;;;1.79;100.00;101807.41;5011382;28;20469;-73
2022/04/02 03:24:26;;;;;;;2.07;1.63;;;;;;;1.78;100.00;101816.28;5013238;28;20215;-73
2022/04/02 03:26:52;;;;;;;1.73;1.57;;;;;;;1.97;100.00;101813.06;4994599;28;20212;-73
2022/04/02 03:29:17;;;;;;;4.90;1.87;;;;;;;2.17;100.00;101823.88;5012508;28;20561;-73
2022/04/02 03:31:44;;;;;;;1.70;1.37;;;;;;;1.93;100.00;101790.44;5016860;28;20200;-73
2022/04/02 03:34:09;;;;;;;1.63;1.50;;;;;;;1.97;100.00;101833.41;5018028;28;20196;-73
2022/04/02 03:36:35;;;;;;;3.67;1.50;;;;;;;1.92;100.00;101807.28;5016206;28;20436;-73
2022/04/02 03:39:00;;;;;;;1.67;1.43;;;;;;;2.00;100.00;101809.34;5017764;28;20180;-73
2022/04/02 03:41:26;;;;;;;1.40;1.30;;;;;;;2.19;100.00;101833.38;5019586;28;20298;-73
2022/04/02 03:43:53;;;;;;;2.50;1.80;;;;;;;1.59;100.00;101797.47;4997963;28;20536;-73
2022/04/02 03:49:03;;;;;;;3.30;1.63;;;;;;;2.01;100.00;101818.94;5011910;28;20485;-73
2022/04/02 03:51:28;;;;;;;1.67;1.50;;;;;;;1.79;100.00;101822.41;5011914;28;20505;-73
2022/04/02 03:53:54;;;;;;;3.43;2.13;;;;;;;1.88;100.00;101842.00;5019420;28;20189;-73
2022/04/02 03:56:19;;;;;;;2.73;1.47;;;;;;;1.62;100.00;101794.63;5017408;28;20216;-73
2022/04/02 03:58:44;;;;;;;1.63;1.40;;;;;;;1.73;100.00;101817.56;5019120;28;20192;-73
2022/04/02 04:01:10;;;;;;;1.83;1.60;;;;;;;1.68;100.00;101801.22;5014627;28;20222;-74
2022/04/02 04:03:35;;;;;;;3.93;1.87;;;;;;;1.80;100.00;101843.47;5016091;28;20195;-74
2022/04/02 04:06:01;;;;;;;3.00;1.70;;;;;;;2.07;100.00;101849.38;5019328;28;20204;-73
2022/04/02 04:08:26;;;;;;;1.37;1.27;;;;;;;1.93;100.00;101818.69;5000054;28;20187;-74
2022/04/02 04:10:52;;;;;;;1.57;1.47;;;;;;;2.06;100.00;101853.84;5014404;28;20207;-74
2022/04/02 04:13:17;;;;;;;4.60;1.60;;;;;;;2.02;100.00;101853.22;5016991;28;20714;-74
2022/04/02 04:15:42;;;;;;;2.37;1.60;;;;;;;1.91;100.00;101813.53;5011564;28;20275;-74
2022/04/02 04:18:08;;;;;;;1.83;1.40;;;;;;;1.99;100.00;101849.97;5015624;28;20189;-74
2022/04/02 04:20:34;;;;;;;3.43;1.50;;;;;;;1.76;100.00;101802.31;5015658;28;20532;-73
2022/04/02 04:23:00;;;;;;;2.70;2.07;;;;;;;1.74;100.00;101811.34;5016400;28;20181;-73
2022/04/02 04:25:25;;;;;;;1.50;1.37;;;;;;;2.00;100.00;101870.19;5015093;28;20500;-74
2022/04/02 04:27:51;;;;;;;3.30;1.87;;;;;;;2.02;100.00;101868.25;5013410;28;20466;-74
2022/04/02 04:30:16;;;;;;;3.53;1.87;;;;;;;2.27;100.00;101864.56;5006519;28;22303;-73
2022/04/02 04:32:41;;;;;;;1.83;1.60;;;;;;;2.08;100.00;101853.72;5016982;28;20203;-73
2022/04/02 04:35:07;;;;;;;2.60;1.65;;;;;;;1.95;100.00;101854.66;5016394;28;20212;-73
2022/04/02 04:37:37;;;;;;;2.37;1.93;;;;;;;1.85;100.00;101837.78;5008689;28;20284;-74
2022/04/02 04:40:05;;;;;;;2.23;1.67;;;;;;;1.72;100.00;101850.28;5008017;28;20223;-73
2022/04/02 04:42:31;;;;;;;1.80;1.63;;;;;;;1.86;100.00;101846.59;5015110;28;20443;-74
2022/04/02 04:44:56;;;;;;;4.47;1.70;;;;;;;1.55;100.00;101812.72;5006719;28;20446;-73
2022/04/02 04:47:22;;;;;;;1.40;1.30;;;;;;;1.20;100.00;101773.09;4994309;28;20515;-74
2022/04/02 04:49:47;;;;;;;3.43;1.73;;;;;;;1.84;100.00;101874.97;5008995;28;20611;-74
2022/04/02 04:52:12;;;;;;;1.80;1.60;;;;;;;0.93;100.00;101717.88;5010102;28;20247;-74
2022/04/02 04:54:38;;;;;;;4.43;1.77;;;;;;;1.66;100.00;101833.09;5013449;28;20196;-74
2022/04/02 04:57:03;;;;;;;2.33;1.50;;;;;;;1.90;100.00;101877.97;4995161;28;20199;-74
2022/04/02 04:59:29;;;;;;;2.60;1.37;;;;;;;1.55;100.00;101830.41;5006874;28;20188;-74
2022/04/02 05:01:54;;;;;;;3.27;1.97;;;;;;;2.00;100.00;101891.38;5008241;28;20554;-74
2022/04/02 05:04:20;;;;;;;2.27;1.70;;;;;;;2.12;100.00;101890.44;5010819;28;20287;-73
2022/04/02 05:06:46;;;;;;;1.67;1.57;;;;;;;2.21;100.00;101895.00;5007809;28;20255;-73
2022/04/02 05:09:11;;;;;;;2.73;1.80;;;;;;;2.09;100.00;101895.97;5010691;28;20192;-73
2022/04/02 05:11:37;;;;;;;4.53;1.80;;;;;;;1.93;100.00;101901.56;5012151;28;20557;-73
2022/04/02 05:14:03;;;;;;;3.40;1.50;;;;;;;1.72;100.00;101852.94;5011711;28;20176;-72
2022/04/02 05:16:29;;;;;;;2.20;1.57;;;;;;;1.91;100.00;101905.28;5015342;28;20224;-73
2022/04/02 05:18:55;;;;;;;2.73;1.93;;;;;;;1.55;100.00;101844.47;5012009;28;20525;-73
2022/04/02 05:21:20;;;;;;;2.50;1.77;;;;;;;1.77;100.00;101870.16;5011516;28;20212;-73
2022/04/02 05:23:45;;;;;;;3.43;1.70;;;;;;;1.74;100.00;101883.59;5018779;28;20831;-74
2022/04/02 05:26:11;;;;;;;2.87;1.80;;;;;;;1.74;100.00;101883.59;5013865;28;20240;-73
2022/04/02 05:28:36;;;;;;;2.93;1.93;;;;;;;1.78;100.00;101894.78;5012049;28;20215;-74
2022/04/02 05:31:02;;;;;;;4.87;1.80;;;;;;;1.92;100.00;101920.22;4997690;28;20204;-73
2022/04/02 05:33:28;;;;;;;1.60;1.50;;;;;;;2.08;100.00;101904.00;4995647;28;20177;-74
2022/04/02 05:35:53;;;;;;;3.90;1.77;;;;;;;1.91;100.00;101890.28;5011690;28;20506;-73
2022/04/02 05:38:19;;;;;;;3.00;1.70;;;;;;;1.79;100.00;101891.19;5008977;28;20188;-73
2022/04/02 05:40:44;;;;;;;2.83;2.10;;;;;;;1.74;100.00;101873.03;5009100;28;20680;-74
2022/04/02 05:43:09;;;;;;;2.20;1.87;;;;;;;1.69;100.00;101898.97;5013199;28;20255;-74
2022/04/02 05:45:35;;;;;;;2.23;1.87;;;;;;;1.80;100.00;101895.53;5014909;28;20206;-73
2022/04/02 05:48:00;;;;;;;2.50;1.70;;;;;;;1.86;100.00;101878.34;5019355;28;20703;-73
2022/04/02 05:50:26;;;;;;;3.70;1.97;;;;;;;1.77;100.00;101877.25;5017334;28;20712;-73
2022/04/02 05:52:53;;;;;;;2.93;1.67;;;;;;;2.28;100.00;101928.94;5017243;28;20614;-73
2022/04/02 05:55:19;;;;;;;2.20;1.67;;;;;;;2.08;100.00;101935.75;5018182;28;20442;-74
2022/04/02 05:57:46;;;;;;;3.47;1.60;;;;;;;1.82;100.00;101906.81;5017921;28;20434;-74
2022/04/02 06:00:13;;;;;;;1.87;1.73;;;;;;;2.22;100.00;101939.03;5014536;28;20455;-73
2022/04/02 06:02:39;;;;;;;1.87;1.53;;;;;;;2.35;100.00;101933.66;5016377;28;20499;-73
2022/04/02 06:05:07;;;;;;;1.40;1.30;;;;;;;2.24;100.00;101942.41;5013306;28;20502;-75
2022/04/02 06:07:33;;;;;;;2.33;1.87;;;;;;;2.20;100.00;101942.78;5010673;28;20204;-73
2022/04/02 06:09:59;;;;;;;2.90;2.20;;;;;;;1.76;100.00;101862.31;5012029;28;20447;-73
2022/04/02 06:12:25;;;;;;;1.87;1.77;;;;;;;2.12;100.00;101900.19;5008881;28;20927;-74
2022/04/02 06:14:50;;;;;;;3.37;2.03;;;;;;;2.07;100.00;101897.03;5011704;28;20450;-74
2022/04/02 06:17:16;;;;;;;1.90;1.43;;;;;;;2.04;100.00;101906.88;5009539;28;21112;-74
2022/04/02 06:19:42;;;;;;;1.50;1.40;;;;;;;2.24;100.00;101952.16;5009389;28;20642;-74
2022/04/02 06:22:07;;;;;;;1.83;1.70;;;;;;;1.96;100.00;101888.09;5005590;28;20669;-74
2022/04/02 06:24:36;;;;;;;1.87;1.70;;;;;;;2.49;100.00;101957.28;5009635;28;20439;-74
2022/04/02 06:27:02;;;;;;;2.67;1.70;;;;;;;2.52;100.00;101929.72;5005583;22;20290;-74
2022/04/02 06:29:27;;;;;;;1.93;1.73;;;;;;;2.53;100.00;101926.09;5009969;28;20482;-74
2022/04/02 06:31:53;;;;;;;2.63;1.60;;;;;;;2.59;100.00;101920.31;5011880;28;20196;-74
2022/04/02 06:34:18;;;;;;;3.20;1.40;;;;;;;2.63;100.00;101947.38;5013655;28;20199;-74
2022/04/02 06:36:43;;;;;;;1.97;1.63;;;;;;;1.87;100.00;101809.44;5017435;28;20219;-74
2022/04/02 06:39:09;;;;;;;2.03;1.43;;;;;;;3.30;100.00;101973.88;5016376;28;20192;-74
2022/04/02 06:41:34;;;;;;;2.97;1.57;;;;;;;2.21;100.00;101871.19;5015608;28;20819;-74
2022/04/02 06:44:00;;;;;;;2.80;1.77;;;;;;;2.68;100.00;101895.72;5009891;28;20192;-74
2022/04/02 06:46:25;;;;;;;2.20;1.73;;;;;;;2.74;100.00;101898.88;5007588;28;20274;-76
2022/04/02 06:48:50;;;;;;;3.33;1.70;;;;;;;2.92;100.00;101910.66;5009084;28;20242;-72
2022/04/02 06:51:17;;;;;;;2.93;1.60;;;;;;;2.88;100.00;101895.97;5012606;28;20196;-73
2022/04/02 06:53:42;;;;;;;2.20;1.87;;;;;;;3.27;100.00;101944.06;5010373;28;20561;-74
2022/04/02 06:56:08;;;;;;;2.03;1.83;;;;;;;3.29;100.00;101931.53;5009013;28;20467;-74
2022/04/02 06:58:35;;;;;;;2.10;1.57;;;;;;;3.70;100.00;101981.22;5018008;28;20191;-74
2022/04/02 07:01:01;;;;;;;2.00;1.50;;;;;;;3.37;100.00;101913.22;5012794;28;20197;-74
2022/04/02 07:03:26;;;;;;;1.70;1.10;;;;;;;3.71;100.00;101960.84;5012234;28;20446;-74
2022/04/02 07:05:51;;;;;;;2.17;1.50;;;;;;;3.52;100.00;101959.69;5013872;28;20672;-74
2022/04/02 07:08:17;;;;;;;2.50;1.27;;;;;;;3.99;100.00;101994.75;5013954;28;20610;-75
2022/04/02 07:10:43;;;;;;;2.43;1.30;;;;;;;4.05;100.00;101993.38;5020905;28;20211;-75
2022/04/02 07:13:09;;;;;;;2.17;1.57;;;;;;;4.05;100.00;101962.38;5013945;28;20539;-74
2022/04/02 07:15:34;;;;;;;4.43;1.70;;;;;;;4.23;100.00;101981.22;5013582;28;20188;-74
2022/04/02 07:18:06;;;;;;;3.20;1.63;;;;;;;4.27;100.00;102001.25;5011307;28;20208;-77
2022/04/02 07:20:34;;;;;;;7.50;1.33;;;;;;;4.33;100.00;101996.38;5015826;28;20196;-75
2022/04/02 07:23:01;;;;;;;1.37;1.20;;;;;;;4.07;100.00;101954.28;5010096;28;20952;-76
2022/04/02 07:25:28;;;;;;;1.27;1.17;;;;;;;3.30;100.00;101829.84;4998332;28;20442;-75
2022/04/02 07:27:57;;;;;;;1.40;1.10;;;;;;;3.63;100.00;101879.22;5010867;28;21821;-79
2022/04/02 07:30:24;;;;;;;4.57;1.43;;;;;;;4.25;100.00;101954.53;5010690;28;20442;-76
2022/04/02 07:32:51;;;;;;;2.90;1.20;;;;;;;4.53;100.00;101971.63;5015389;28;20441;-75
2022/04/02 07:35:16;;;;;;;3.03;1.27;;;;;;;4.45;100.00;101928.91;5018420;28;21027;-76
2022/04/02 07:37:57;;;;;;;1.67;1.40;;;;;;;4.86;100.00;102004.22;5007082;28;20581;-86
2022/04/02 07:40:45;;;;;;;2.47;1.30;;;;;;;4.91;100.00;102004.69;5014782;28;20211;-75
2022/04/02 07:43:23;;;;;;;1.67;1.17;;;;;;;5.08;100.00;102005.88;5028840;28;20443;-76
2022/04/02 07:45:57;;;;;;;1.20;1.10;;;;;;;5.00;100.00;101990.56;5014467;28;20936;-75
2022/04/02 07:48:25;;;;;;;1.20;1.10;;;;;;;5.15;100.00;102013.19;5009700;28;20456;-75
2022/04/02 07:50:51;;;;;;;1.23;1.10;;;;;;;5.03;100.00;102002.75;5016123;28;20818;-76
2022/04/02 07:53:22;;;;;;;1.90;1.20;;;;;;;5.15;100.00;102018.50;5018147;28;20446;-75
2022/04/02 07:55:56;;;;;;;2.73;0.93;;;;;;;4.71;100.00;101946.09;5017856;28;25711;-75
2022/04/02 07:58:26;;;;;;;1.23;0.90;;;;;;;5.32;100.00;102011.72;5019753;28;20446;-76
2022/04/02 08:00:54;;;;;;;3.00;1.03;;;;;;;5.34;100.00;102017.72;5017317;28;20439;-76
2022/04/02 08:03:21;;;;;;;0.97;0.97;;;;;;;5.16;100.00;101977.63;5013543;28;20467;-76
2022/04/02 08:05:46;;;;;;;1.93;1.70;;;;;;;5.38;100.00;101989.00;5016980;28;20447;-76
2022/04/02 08:08:13;;;;;;;3.10;1.73;;;;;;;4.96;100.00;101926.19;5018412;28;20470;-76
2022/04/02 08:10:45;;;;;;;1.80;1.53;;;;;;;5.34;100.00;102024.88;5021926;28;20454;-76
2022/04/02 08:13:14;;;;;;;3.17;1.87;;;;;;;5.20;100.00;102026.91;5020306;28;20432;-77
2022/04/02 08:15:40;;;;;;;3.97;1.40;;;;;;;4.97;100.00;102010.28;5024064;28;20443;-76
2022/04/02 08:18:07;;;;;;;1.80;1.00;;;;;;;4.60;100.00;101983.41;5020370;28;22899;-76
2022/04/02 08:20:33;;;;;;;1.63;0.90;;;;;;;4.91;100.00;102045.41;5023151;28;20450;-77
2022/04/02 08:22:58;;;;;;;1.10;0.90;;;;;;;4.65;100.00;102030.84;5022113;28;20443;-77
2022/04/02 08:25:24;;;;;;;1.00;0.90;;;;;;;4.54;100.00;101991.91;5024074;28;20946;-78
2022/04/02 08:28:08;;;;;;;1.77;0.80;;;;;;;4.50;100.00;102017.88;5020825;28;20216;-77
2022/04/02 08:30:44;;;;;;;1.30;1.00;;;;;;;4.94;100.00;102053.09;5025735;28;20193;-76
2022/04/02 08:34:08;;;;;;;2.50;1.07;;;;;;;4.68;100.00;102046.53;5024045;28;20671;-77
2022/04/02 08:36:42;;;;;;;1.47;0.67;;;;;;;4.65;100.00;102036.16;4976604;28;20477;-76
2022/04/02 08:39:30;;;;;;;2.00;0.97;;;;;;;4.86;100.00;102041.44;4977655;28;20513;-76
2022/04/02 08:42:52;;;;;;;2.03;1.10;;;;;;;4.77;100.00;102043.06;5013612;28;20956;-76
2022/04/02 08:45:27;;;;;;;1.00;0.90;;;;;;;4.65;100.00;102041.47;4981530;28;20448;-76
2022/04/02 08:48:18;;;;;;;1.37;0.90;;;;;;;4.88;100.00;102044.81;4978663;28;20476;-77
2022/04/02 08:50:48;;;;;;;2.13;1.33;;;;;;;4.75;100.00;102026.44;5013695;28;20963;-76
2022/04/02 08:53:18;;;;;;;1.50;1.00;;;;;;;4.92;100.00;102055.06;5022965;28;20462;-77
2022/04/02 08:55:49;;;;;;;1.63;1.17;;;;;;;4.91;100.00;102060.50;5022564;28;20533;-77
2022/04/02 08:59:01;;;;;;;3.47;1.20;;;;;;;4.83;100.00;102033.75;5026458;28;20467;-77
2022/04/02 09:01:37;;;;;;;2.33;1.10;;;;;;;4.85;100.00;102022.00;5012462;28;20541;-76
2022/04/02 09:04:21;;;;;;;3.53;1.80;;;;;;;5.08;100.00;102051.91;5016251;28;20465;-77
2022/04/02 09:07:09;;;;;;;1.87;1.40;;;;;;;4.89;100.00;102063.31;5008022;28;20565;-77
2022/04/02 09:09:47;;;;;;;3.40;1.70;;;;;;;5.00;100.00;102070.34;5007146;28;20577;-76
2022/04/02 09:12:40;;;;;;;1.87;1.33;;;;;;;5.20;100.00;102074.78;5009178;28;20585;-76
2022/04/02 09:15:10;;;;;;;2.80;1.80;;;;;;;5.12;100.00;102073.75;5017715;28;21185;-76
2022/04/02 09:17:47;;;;;;;2.07;1.43;;;;;;;5.39;100.00;102070.53;5023301;28;20466;-76
2022/04/02 09:20:26;;;;;;;3.00;1.20;;;;;;;5.54;100.00;102074.50;5022679;28;20444;-76
2022/04/02 09:23:11;;;;;;;3.30;1.30;;;;;;;5.82;100.00;102072.06;5023235;28;20430;-76
2022/04/02 09:25:58;;;;;;;1.40;0.90;;;;;;;5.92;100.00;102080.88;5022319;28;20513;-76
2022/04/02 09:28:42;;;;;;;1.57;1.20;;;;;;;5.85;100.00;102079.78;5022005;28;20884;-77
2022/04/02 09:31:48;;;;;;;1.03;0.90;;;;;;;5.99;100.00;102063.44;5022234;28;20435;-76
2022/04/02 09:34:48;;;;;;;2.30;1.20;;;;;;;6.23;100.00;102056.84;5017513;28;20966;-76
2022/04/02 09:37:37;;;;;;;2.90;0.97;;;;;;;6.32;100.00;102077.31;5020679;28;20505;-76
2022/04/02 09:40:10;;;;;;;1.37;0.80;;;;;;;6.41;100.00;102071.13;5023199;28;20439;-76
2022/04/02 09:42:46;;;;;;;0.67;0.67;;;;;;;6.25;100.00;102070.84;5021404;28;20811;-76
2022/04/02 09:45:21;;;;;;;2.27;0.90;;;;;;;6.17;100.00;102084.03;5023631;28;20443;-76
2022/04/02 09:48:36;;;;;;;4.07;1.00;;;;;;;6.08;100.00;102067.91;5021253;28;20528;-76
2022/04/02 09:51:04;;;;;;;1.87;0.90;;;;;;;5.76;100.00;102061.97;5018536;28;20508;-75
2022/04/02 09:53:39;;;;;;;1.10;0.90;;;;;;;5.71;100.00;102059.69;5020921;28;20797;-76
2022/04/02 09:56:10;;;;;;;1.53;0.90;;;;;;;5.68;100.00;102083.94;5020280;28;20520;-76
2022/04/02 09:58:44;;;;;;;0.80;0.80;;;;;;;5.64;100.00;102094.00;5021206;28;20436;-76
2022/04/02 10:01:22;;;;;;;1.53;0.93;;;;;;;5.61;100.00;102093.41;5018201;28;20438;-76
2022/04/02 10:04:00;;;;;;;1.60;1.10;;;;;;;5.48;100.00;102096.34;5022107;28;20534;-76
2022/04/02 10:06:39;;;;;;;1.87;1.03;;;;;;;5.37;100.00;102102.59;5019340;28;20464;-75
2022/04/02 10:09:15;;;;;;;1.20;0.90;;;;;;;5.60;100.00;102087.25;5022038;28;20443;-75
2022/04/02 10:11:55;;;;;;;1.73;1.07;;;;;;;5.21;100.00;102049.88;5017642;28;20496;-76
2022/04/02 10:14:23;;;;;;;0.90;0.80;;;;;;;5.39;100.00;102099.81;5022037;28;20462;-76
2022/04/02 10:17:03;;;;;;;1.97;1.20;;;;;;;5.46;100.00;102086.78;5015834;28;20599;-76
2022/04/02 10:19:34;;;;;;;2.63;0.90;;;;;;;5.24;100.00;102062.09;5021757;28;20445;-76
2022/04/02 10:22:09;;;;;;;1.47;1.20;;;;;;;5.49;100.00;102084.69;5016608;28;20584;-75
2022/04/02 10:24:47;;;;;;;1.20;1.00;;;;;;;5.24;100.00;102071.88;5020767;28;20501;-76
2022/04/02 10:27:25;;;;;;;3.50;1.10;;;;;;;5.54;100.00;102087.81;5019885;28;20478;-76
2022/04/02 10:30:00;;;;;;;1.13;0.97;;;;;;;5.73;100.00;102094.16;5020497;28;20510;-76
2022/04/02 10:32:33;;;;;;;2.00;0.83;;;;;;;5.62;100.00;102090.63;5019163;28;20445;-76
2022/04/02 10:35:07;;;;;;;2.20;1.20;;;;;;;5.79;100.00;102090.97;5020586;28;20427;-76
2022/04/02 10:37:41;;;;;;;1.57;1.00;;;;;;;5.35;100.00;102022.09;5019848;28;20550;-75
2022/04/02 10:40:10;;;;;;;1.13;0.90;;;;;;;5.87;100.00;102091.09;5021561;28;20534;-76
2022/04/02 10:42:40;;;;;;;1.37;1.00;;;;;;;5.71;100.00;102081.00;5021466;28;20493;-75
2022/04/02 10:45:10;;;;;;;0.83;0.67;;;;;;;5.64;100.00;102091.34;5019554;28;20546;-76
2022/04/02 10:47:43;;;;;;;1.23;1.07;;;;;;;5.12;100.00;102048.03;5020199;28;20871;-75
2022/04/02 10:50:09;;;;;;;1.23;0.73;;;;;;;5.46;100.00;102069.00;5020674;28;20915;-75
2022/04/02 10:52:35;;;;;;;4.13;1.03;;;;;;;4.67;100.00;101941.22;5020286;28;20445;-76
2022/04/02 10:55:02;;;;;;;1.23;1.10;;;;;;;4.99;100.00;102037.59;5021068;28;20443;-76
2022/04/02 10:57:30;;;;;;;1.73;1.13;;;;;;;4.92;100.00;102038.28;5020299;28;21003;-75
2022/04/02 11:00:04;;;;;;;1.10;1.00;;;;;;;4.80;100.00;102057.94;5022038;28;20438;-76
2022/04/02 11:02:50;;;;;;;1.10;1.00;;;;;;;4.96;100.00;102055.66;5018450;28;20950;-76
2022/04/02 11:05:17;;;;;;;0.77;0.77;;;;;;;5.31;100.00;102070.38;5020081;28;20523;-76
2022/04/02 11:07:49;;;;;;;1.33;0.93;;;;;;;5.60;100.00;102089.91;5017937;28;20477;-75
2022/04/02 11:10:21;;;;;;;2.77;1.10;;;;;;;5.66;100.00;102086.72;5033490;28;20788;-76
2022/04/02 11:12:50;;;;;;;1.50;1.10;;;;;;;5.84;100.00;102086.91;5018891;28;20449;-76
2022/04/02 11:15:23;;;;;;;2.30;0.97;;;;;;;6.17;100.00;102084.03;5020589;28;20975;-75
2022/04/02 11:17:59;;;;;;;2.40;1.07;;;;;;;5.81;100.00;102017.09;5019061;28;20939;-75
2022/04/02 11:20:27;;;;;;;1.40;1.00;;;;;;;6.22;100.00;102033.81;5016366;28;20807;-76
2022/04/02 11:22:52;;;;;;;2.20;1.30;;;;;;;6.19;100.00;102068.75;5017395;28;20442;-75
2022/04/02 11:25:31;;;;;;;1.60;1.00;;;;;;;6.38;100.00;102079.41;5017572;28;20474;-75
2022/04/02 11:28:10;;;;;;;0.70;0.70;;;;;;;6.02;100.00;102028.53;5015751;28;20215;-75
2022/04/02 11:30:43;;;;;;;1.00;0.80;;;;;;;6.22;100.00;102077.31;5019129;28;20513;-75
2022/04/02 11:33:13;;;;;;;0.93;0.90;;;;;;;6.24;100.00;102077.16;5018838;28;20444;-75
2022/04/02 11:35:45;;;;;;;0.87;0.87;;;;;;;6.18;100.00;102081.22;5019300;28;20435;-75
2022/04/02 11:38:26;;;;;;;0.80;0.80;;;;;;;6.41;100.00;102067.63;5016522;28;20431;-75
2022/04/02 11:40:59;;;;;;;0.93;0.80;;;;;;;6.51;100.00;102052.47;5017454;28;20427;-75
2022/04/02 11:43:36;;;;;;;1.00;1.00;;;;;;;6.71;100.00;102080.78;5019668;28;20982;-76